createdAt,value
2024-04-24T00:00:11.582Z,6.33
2024-04-24T00:02:38.240Z,6.32
2024-04-24T00:05:05.831Z,6.31
2024-04-24T00:07:32.894Z,6.29
2024-04-24T00:09:59.623Z,6.34
2024-04-24T00:12:26.337Z,6.26
2024-04-24T00:14:53.017Z,6.25
2024-04-24T00:17:19.702Z,6.18
2024-04-24T00:19:46.401Z,6.14
2024-04-24T00:22:13.071Z,6.05
2024-04-24T00:24:39.753Z,6.16
2024-04-24T00:27:06.439Z,6.17
2024-04-24T00:29:33.060Z,6.14
2024-04-24T00:32:06.423Z,6.11
2024-04-24T00:34:34.076Z,6.06
2024-04-24T00:37:00.812Z,6.03
2024-04-24T00:39:27.493Z,5.98
2024-04-24T00:41:54.116Z,5.96
2024-04-24T00:44:20.881Z,5.91
2024-04-24T00:46:47.855Z,5.89
2024-04-24T00:49:15.239Z,5.86
2024-04-24T00:51:43.634Z,5.79
2024-04-24T00:54:10.514Z,5.72
2024-04-24T00:56:37.333Z,5.65
2024-04-24T00:59:04.050Z,5.60
2024-04-24T01:01:30.701Z,5.56
2024-04-24T01:03:57.387Z,5.49
2024-04-24T01:06:24.121Z,5.50
2024-04-24T01:08:50.845Z,5.43
2024-04-24T01:11:17.669Z,5.40
2024-04-24T01:13:44.355Z,5.36
2024-04-24T01:16:16.009Z,5.34
2024-04-24T01:18:50.921Z,5.32
2024-04-24T01:21:18.570Z,5.28
2024-04-24T01:24:01.454Z,5.26
2024-04-24T01:26:41.525Z,5.24
2024-04-24T01:29:08.561Z,5.24
2024-04-24T01:31:35.198Z,5.22
2024-04-24T01:34:01.857Z,5.22
2024-04-24T01:36:28.546Z,5.23
2024-04-24T01:38:55.223Z,5.22
2024-04-24T01:41:21.858Z,5.22
2024-04-24T01:43:48.551Z,5.22
2024-04-24T01:46:15.232Z,5.21
2024-04-24T01:48:42.889Z,5.17
2024-04-24T01:51:09.611Z,5.17
2024-04-24T01:53:37.052Z,5.13
2024-04-24T01:56:04.320Z,5.12
2024-04-24T01:58:31.027Z,5.13
2024-04-24T02:00:57.696Z,5.06
2024-04-24T02:03:24.369Z,5.09
2024-04-24T02:05:51.034Z,5.08
2024-04-24T02:08:18.003Z,5.06
2024-04-24T02:10:44.660Z,5.09
2024-04-24T02:13:11.342Z,5.08
2024-04-24T02:15:38.056Z,5.07
2024-04-24T02:18:06.362Z,5.07
2024-04-24T02:20:36.528Z,4.80
2024-04-24T02:23:07.453Z,5.05
2024-04-24T02:25:34.943Z,5.05
2024-04-24T02:28:09.149Z,5.06
2024-04-24T02:30:35.773Z,5.09
2024-04-24T02:33:03.356Z,5.10
2024-04-24T02:35:30.412Z,5.02
2024-04-24T02:37:57.230Z,5.12
2024-04-24T02:40:24.000Z,5.12
2024-04-24T02:42:50.688Z,5.10
2024-04-24T02:45:17.435Z,5.06
2024-04-24T02:47:44.188Z,5.02
2024-04-24T02:50:11.249Z,5.05
2024-04-24T02:52:37.877Z,5.03
2024-04-24T02:55:04.912Z,5.03
2024-04-24T02:57:31.538Z,5.04
2024-04-24T02:59:58.139Z,5.02
2024-04-24T03:02:24.869Z,5.01
2024-04-24T03:04:51.639Z,5.03
2024-04-24T03:07:18.288Z,5.02
2024-04-24T03:09:46.235Z,4.99
2024-04-24T03:12:12.888Z,5.00
2024-04-24T03:14:39.527Z,4.97
2024-04-24T03:17:06.271Z,4.97
2024-04-24T03:19:33.030Z,4.97
2024-04-24T03:21:59.672Z,4.94
2024-04-24T03:24:26.307Z,4.93
2024-04-24T03:26:52.912Z,4.95
2024-04-24T03:29:21.676Z,4.92
2024-04-24T03:31:48.688Z,4.94
2024-04-24T03:34:15.411Z,4.92
2024-04-24T03:36:42.097Z,4.93
2024-04-24T03:39:08.915Z,4.88
2024-04-24T03:41:35.818Z,4.87
2024-04-24T03:44:02.452Z,4.87
2024-04-24T03:46:29.070Z,4.86
2024-04-24T03:48:55.736Z,4.85
2024-04-24T03:51:22.346Z,4.85
2024-04-24T03:53:49.006Z,4.84
2024-04-24T03:56:15.635Z,4.82
2024-04-24T03:58:42.319Z,4.81
2024-04-24T04:01:08.976Z,4.79
2024-04-24T04:03:35.657Z,4.80
2024-04-24T04:06:02.349Z,4.77
2024-04-24T04:08:31.051Z,4.74
2024-04-24T04:10:57.801Z,4.77
2024-04-24T04:13:24.386Z,4.82
2024-04-24T04:15:50.995Z,4.82
2024-04-24T04:18:17.650Z,4.79
2024-04-24T04:20:44.318Z,4.51
2024-04-24T04:23:11.045Z,4.79
2024-04-24T04:25:37.689Z,4.82
2024-04-24T04:28:05.185Z,4.83
2024-04-24T04:30:31.818Z,4.78
2024-04-24T04:32:58.500Z,4.76
2024-04-24T04:35:25.371Z,4.76
2024-04-24T04:37:52.126Z,4.75
2024-04-24T04:40:18.734Z,4.79
2024-04-24T04:42:45.429Z,4.75
2024-04-24T04:45:12.011Z,4.75
2024-04-24T04:47:38.774Z,4.73
2024-04-24T04:50:06.012Z,4.72
2024-04-24T04:52:32.676Z,4.70
2024-04-24T04:54:59.398Z,4.66
2024-04-24T04:57:26.222Z,4.18
2024-04-24T04:59:52.880Z,4.67
2024-04-24T05:02:19.505Z,4.66
2024-04-24T05:04:46.189Z,4.69
2024-04-24T05:07:12.863Z,4.69
2024-04-24T05:09:39.529Z,4.73
2024-04-24T05:12:08.123Z,4.72
2024-04-24T05:14:34.854Z,4.74
2024-04-24T05:17:01.690Z,4.74
2024-04-24T05:19:28.322Z,4.74
2024-04-24T05:21:54.917Z,4.69
2024-04-24T05:24:21.910Z,4.72
2024-04-24T05:27:07.519Z,4.71
2024-04-24T05:29:34.214Z,4.75
2024-04-24T05:32:00.854Z,4.70
2024-04-24T05:34:27.536Z,4.74
2024-04-24T05:36:54.150Z,4.75
2024-04-24T05:39:20.948Z,4.78
2024-04-24T05:41:47.611Z,4.80
2024-04-24T05:44:14.420Z,4.78
2024-04-24T05:46:41.132Z,4.81
2024-04-24T05:49:07.749Z,4.83
2024-04-24T05:51:37.228Z,4.78
2024-04-24T05:54:04.024Z,4.85
2024-04-24T05:56:30.752Z,4.83
2024-04-24T05:58:57.446Z,4.87
2024-04-24T06:01:24.129Z,4.83
2024-04-24T06:03:50.766Z,4.94
2024-04-24T06:06:17.538Z,5.12
2024-04-24T06:08:44.171Z,5.14
2024-04-24T06:11:11.743Z,5.30
2024-04-24T06:13:38.467Z,5.40
2024-04-24T06:16:05.574Z,5.58
2024-04-24T06:18:32.298Z,5.73
2024-04-24T06:20:59.196Z,5.90
2024-04-24T06:23:25.893Z,6.26
2024-04-24T06:25:52.685Z,6.30
2024-04-24T06:28:19.346Z,6.53
2024-04-24T06:30:45.953Z,6.71
2024-04-24T06:33:12.854Z,7.04
2024-04-24T06:35:39.591Z,7.73
2024-04-24T06:38:06.693Z,7.71
2024-04-24T06:40:33.354Z,7.51
2024-04-24T06:42:59.955Z,7.59
2024-04-24T06:45:26.564Z,7.32
2024-04-24T06:47:53.373Z,7.15
2024-04-24T06:50:20.126Z,7.05
2024-04-24T06:52:46.742Z,7.04
2024-04-24T06:55:13.786Z,7.41
2024-04-24T06:57:40.399Z,7.71
2024-04-24T07:00:07.681Z,7.43
2024-04-24T07:02:34.442Z,7.67
2024-04-24T07:05:01.152Z,7.88
2024-04-24T07:07:27.828Z,8.26
2024-04-24T07:09:54.458Z,8.77
2024-04-24T07:12:21.113Z,9.15
2024-04-24T07:14:47.740Z,9.63
2024-04-24T07:17:14.467Z,9.87
2024-04-24T07:19:41.145Z,9.67
2024-04-24T07:22:07.772Z,9.82
2024-04-24T07:24:34.415Z,10.03
2024-04-24T07:27:01.024Z,10.11
2024-04-24T07:29:27.838Z,10.09
2024-04-24T07:31:54.652Z,10.43
2024-04-24T07:34:21.298Z,10.36
2024-04-24T07:36:47.916Z,10.56
2024-04-24T07:39:14.540Z,10.90
2024-04-24T07:41:43.493Z,10.92
2024-04-24T07:44:10.607Z,10.73
2024-04-24T07:46:37.717Z,10.88
2024-04-24T07:49:04.377Z,10.84
2024-04-24T07:51:31.027Z,10.73
2024-04-24T07:53:57.682Z,9.92
2024-04-24T07:56:24.463Z,9.87
2024-04-24T07:58:51.248Z,9.60
2024-04-24T08:01:21.019Z,9.76
2024-04-24T08:03:47.709Z,9.72
2024-04-24T08:06:14.471Z,9.56
2024-04-24T08:08:41.275Z,9.25
2024-04-24T08:11:08.251Z,9.19
2024-04-24T08:13:34.959Z,8.91
2024-04-24T08:16:01.757Z,8.74
2024-04-24T08:18:28.406Z,8.81
2024-04-24T08:20:55.543Z,8.72
2024-04-24T08:23:26.459Z,8.62
2024-04-24T08:25:54.507Z,8.89
2024-04-24T08:28:30.202Z,8.93
2024-04-24T08:31:05.400Z,9.17
2024-04-24T08:33:36.323Z,9.35
2024-04-24T08:36:05.374Z,9.73
2024-04-24T08:38:32.430Z,10.17
2024-04-24T08:41:17.495Z,9.63
2024-04-24T08:43:47.519Z,9.62
2024-04-24T08:46:14.292Z,9.48
2024-04-24T08:48:42.432Z,9.37
2024-04-24T08:51:10.421Z,8.81
2024-04-24T08:53:40.507Z,8.66
2024-04-24T08:56:16.920Z,8.26
2024-04-24T08:58:47.813Z,8.32
2024-04-24T09:01:18.293Z,8.17
2024-04-24T09:03:48.281Z,8.16
2024-04-24T09:06:16.767Z,8.27
2024-04-24T09:08:45.895Z,8.35
2024-04-24T09:11:13.271Z,8.69
2024-04-24T09:13:41.014Z,9.00
2024-04-24T09:16:09.145Z,9.33
2024-04-24T09:18:35.929Z,9.84
2024-04-24T09:21:03.534Z,10.06
2024-04-24T09:23:30.167Z,10.18
2024-04-24T09:25:58.851Z,10.05
2024-04-24T09:28:25.964Z,10.05
2024-04-24T09:30:53.957Z,10.44
2024-04-24T09:33:21.381Z,10.32
2024-04-24T09:35:48.164Z,10.37
2024-04-24T09:38:14.864Z,10.23
2024-04-24T09:40:42.545Z,9.99
2024-04-24T09:43:09.257Z,10.62
2024-04-24T09:45:35.930Z,10.85
2024-04-24T09:48:04.536Z,10.62
2024-04-24T09:50:34.164Z,10.66
2024-04-24T09:53:01.412Z,10.69
2024-04-24T09:55:37.395Z,10.59
2024-04-24T09:58:05.678Z,10.01
2024-04-24T10:00:34.487Z,10.12
2024-04-24T10:03:06.983Z,10.12
2024-04-24T10:05:43.716Z,10.08
2024-04-24T10:08:24.290Z,10.13
2024-04-24T10:10:54.458Z,9.80
2024-04-24T10:13:24.099Z,9.58
2024-04-24T10:15:59.047Z,9.35
2024-04-24T10:18:28.162Z,9.30
2024-04-24T10:20:58.871Z,9.05
2024-04-24T10:23:28.105Z,8.94
2024-04-24T10:25:56.434Z,8.94
2024-04-24T10:28:25.297Z,9.05
2024-04-24T10:30:53.860Z,9.19
2024-04-24T10:33:21.728Z,9.12
2024-04-24T10:35:48.764Z,9.14
2024-04-24T10:38:17.528Z,8.98
2024-04-24T10:40:50.603Z,9.07
2024-04-24T10:43:17.754Z,9.06
2024-04-24T10:45:45.026Z,8.86
2024-04-24T10:48:13.345Z,9.03
2024-04-24T10:50:41.606Z,9.01
2024-04-24T10:53:12.862Z,8.92
2024-04-24T10:55:50.555Z,9.01
2024-04-24T10:58:21.644Z,9.07
2024-04-24T11:00:48.612Z,8.73
2024-04-24T11:03:15.806Z,8.74
2024-04-24T11:05:43.591Z,8.65
2024-04-24T11:08:20.324Z,8.40
2024-04-24T11:10:54.490Z,8.19
2024-04-24T11:13:21.289Z,7.90
2024-04-24T11:15:54.783Z,7.95
2024-04-24T11:18:28.529Z,7.91
2024-04-24T11:20:55.860Z,7.97
2024-04-24T11:23:23.156Z,7.98
2024-04-24T11:25:58.400Z,7.80
2024-04-24T11:28:27.230Z,8.08
2024-04-24T11:30:54.214Z,8.08
2024-04-24T11:33:22.635Z,8.06
2024-04-24T11:35:49.932Z,8.38
2024-04-24T11:38:16.831Z,8.68
2024-04-24T11:40:43.784Z,8.71
2024-04-24T11:43:10.483Z,8.83
2024-04-24T11:45:37.195Z,8.92
2024-04-24T11:48:05.959Z,9.05
2024-04-24T11:50:33.497Z,9.20
2024-04-24T11:53:01.363Z,8.97
2024-04-24T11:55:28.043Z,8.95
2024-04-24T11:57:54.760Z,9.52
2024-04-24T12:00:21.350Z,9.51
2024-04-24T12:02:48.317Z,9.12
2024-04-24T12:05:15.169Z,8.72
2024-04-24T12:07:45.635Z,8.52
2024-04-24T12:10:12.659Z,8.41
2024-04-24T12:12:42.789Z,8.41
2024-04-24T12:15:13.244Z,8.33
2024-04-24T12:17:39.934Z,8.29
2024-04-24T12:20:07.594Z,8.47
2024-04-24T12:22:34.540Z,8.57
2024-04-24T12:25:01.158Z,8.67
2024-04-24T12:27:27.832Z,8.49
2024-04-24T12:29:54.948Z,8.55
2024-04-24T12:32:21.759Z,8.68
2024-04-24T12:34:48.426Z,8.94
2024-04-24T12:37:15.067Z,8.87
2024-04-24T12:39:41.818Z,9.34
2024-04-24T12:42:08.546Z,9.52
2024-04-24T12:44:35.228Z,9.52
2024-04-24T12:47:01.921Z,9.05
2024-04-24T12:49:28.584Z,9.35
2024-04-24T12:51:56.089Z,9.51
2024-04-24T12:54:22.743Z,9.56
2024-04-24T12:56:49.462Z,9.36
2024-04-24T12:59:16.160Z,9.21
2024-04-24T13:01:42.858Z,9.04
2024-04-24T13:04:09.603Z,8.92
2024-04-24T13:06:38.935Z,8.85
2024-04-24T13:09:06.820Z,8.81
2024-04-24T13:11:33.682Z,8.70
2024-04-24T13:14:00.649Z,8.54
2024-04-24T13:16:27.384Z,8.46
2024-04-24T13:18:54.251Z,8.33
2024-04-24T13:21:21.016Z,7.74
2024-04-24T13:23:47.664Z,7.46
2024-04-24T13:26:14.374Z,7.37
2024-04-24T13:28:41.011Z,7.27
2024-04-24T13:31:08.143Z,7.25
2024-04-24T13:33:35.182Z,7.12
2024-04-24T13:36:01.954Z,7.06
2024-04-24T13:38:28.750Z,7.05
2024-04-24T13:41:02.529Z,7.05
2024-04-24T13:43:29.205Z,7.07
2024-04-24T13:45:55.863Z,7.14
2024-04-24T13:48:22.819Z,7.15
2024-04-24T13:50:49.634Z,7.33
2024-04-24T13:53:16.869Z,7.57
2024-04-24T13:55:43.583Z,7.68
2024-04-24T13:58:10.301Z,7.75
2024-04-24T14:00:37.012Z,7.73
2024-04-24T14:03:04.018Z,7.72
2024-04-24T14:05:30.782Z,7.63
2024-04-24T14:07:57.694Z,7.63
2024-04-24T14:10:24.376Z,7.65
2024-04-24T14:12:51.016Z,7.60
2024-04-24T14:15:19.515Z,7.47
2024-04-24T14:17:47.334Z,7.29
2024-04-24T14:20:14.104Z,7.29
2024-04-24T14:22:40.770Z,7.25
2024-04-24T14:25:07.590Z,7.13
2024-04-24T14:27:34.474Z,6.71
2024-04-24T14:30:01.164Z,6.70
2024-04-24T14:32:28.004Z,6.89
2024-04-24T14:34:54.769Z,7.10
2024-04-24T14:37:21.357Z,7.21
2024-04-24T14:39:48.063Z,7.47
2024-04-24T14:42:15.223Z,7.82
2024-04-24T14:44:41.901Z,7.91
2024-04-24T14:47:08.665Z,7.85
2024-04-24T14:49:35.792Z,7.79
2024-04-24T14:52:02.606Z,7.94
2024-04-24T14:54:29.219Z,8.01
2024-04-24T14:56:56.743Z,8.25
2024-04-24T14:59:23.435Z,8.43
2024-04-24T15:01:51.197Z,8.33
2024-04-24T15:04:17.966Z,8.68
2024-04-24T15:07:08.217Z,8.90
2024-04-24T15:09:39.144Z,8.99
2024-04-24T15:12:06.314Z,8.50
2024-04-24T15:14:36.092Z,8.40
2024-04-24T15:17:03.663Z,8.57
2024-04-24T15:19:30.607Z,8.69
2024-04-24T15:21:59.092Z,8.79
2024-04-24T15:24:26.052Z,8.99
2024-04-24T15:26:52.695Z,8.96
2024-04-24T15:29:19.380Z,9.33
2024-04-24T15:31:46.000Z,9.04
2024-04-24T15:34:15.173Z,9.20
2024-04-24T15:36:42.081Z,9.27
2024-04-24T15:39:09.746Z,9.22
2024-04-24T15:41:37.050Z,9.17
2024-04-24T15:44:03.939Z,9.28
2024-04-24T15:46:30.660Z,9.37
2024-04-24T15:48:57.309Z,9.46
2024-04-24T15:51:23.967Z,9.67
2024-04-24T15:53:50.629Z,9.77
2024-04-24T15:56:17.525Z,9.68
2024-04-24T15:58:44.198Z,9.79
2024-04-24T16:01:10.888Z,9.81
2024-04-24T16:03:37.688Z,9.84
2024-04-24T16:06:04.695Z,9.60
2024-04-24T16:08:31.546Z,9.49
2024-04-24T16:10:58.553Z,9.28
2024-04-24T16:13:25.361Z,8.93
2024-04-24T16:15:52.844Z,8.47
2024-04-24T16:18:21.622Z,8.38
2024-04-24T16:20:49.193Z,8.29
2024-04-24T16:23:15.857Z,8.49
2024-04-24T16:25:42.527Z,8.50
2024-04-24T16:28:09.258Z,8.53
2024-04-24T16:30:35.896Z,8.50
2024-04-24T16:33:03.097Z,8.54
2024-04-24T16:35:29.846Z,8.54
2024-04-24T16:37:56.526Z,8.56
2024-04-24T16:40:23.134Z,8.66
2024-04-24T16:42:49.751Z,8.87
2024-04-24T16:45:16.582Z,9.01
2024-04-24T16:47:43.384Z,9.06
2024-04-24T16:50:10.407Z,9.13
2024-04-24T16:52:37.337Z,9.21
2024-04-24T16:55:04.644Z,9.14
2024-04-24T16:57:31.347Z,9.22
2024-04-24T16:59:57.937Z,9.17
2024-04-24T17:02:24.646Z,9.19
2024-04-24T17:04:51.291Z,9.12
2024-04-24T17:07:20.685Z,9.14
2024-04-24T17:09:48.186Z,9.03
2024-04-24T17:12:14.899Z,8.96
2024-04-24T17:14:41.609Z,8.90
2024-04-24T17:17:10.693Z,8.81
2024-04-24T17:19:40.011Z,8.74
2024-04-24T17:22:07.279Z,8.72
2024-04-24T17:24:34.018Z,8.61
2024-04-24T17:27:00.677Z,8.50
2024-04-24T17:29:27.358Z,8.43
2024-04-24T17:31:54.114Z,8.28
2024-04-24T17:34:24.241Z,8.29
2024-04-24T17:36:50.994Z,8.25
2024-04-24T17:39:17.688Z,8.08
2024-04-24T17:41:44.457Z,7.95
2024-04-24T17:44:11.269Z,7.91
2024-04-24T17:46:37.992Z,7.82
2024-04-24T17:49:05.109Z,7.81
2024-04-24T17:51:31.928Z,7.82
2024-04-24T17:53:58.801Z,7.73
2024-04-24T17:56:26.669Z,7.64
2024-04-24T17:58:53.413Z,7.55
2024-04-24T18:01:20.631Z,7.41
2024-04-24T18:03:47.478Z,7.47
2024-04-24T18:06:14.126Z,7.46
2024-04-24T18:08:41.402Z,7.38
2024-04-24T18:11:08.896Z,7.31
2024-04-24T18:13:37.194Z,7.27
2024-04-24T18:16:04.165Z,7.30
2024-04-24T18:18:30.866Z,7.29
2024-04-24T18:20:57.614Z,7.17
2024-04-24T18:23:24.906Z,7.17
2024-04-24T18:25:51.596Z,7.12
2024-04-24T18:28:18.388Z,7.06
2024-04-24T18:30:45.030Z,7.11
2024-04-24T18:33:11.880Z,7.10
2024-04-24T18:35:38.858Z,7.07
2024-04-24T18:38:05.811Z,7.03
2024-04-24T18:40:32.869Z,7.02
2024-04-24T18:42:59.667Z,6.99
2024-04-24T18:45:26.388Z,6.98
2024-04-24T18:47:53.271Z,6.91
2024-04-24T18:50:20.277Z,6.85
2024-04-24T18:52:47.193Z,6.86
2024-04-24T18:55:13.860Z,6.76
2024-04-24T18:57:43.632Z,6.76
2024-04-24T19:00:13.299Z,6.77
2024-04-24T19:02:40.213Z,6.78
2024-04-24T19:05:07.103Z,6.72
2024-04-24T19:07:33.780Z,6.69
2024-04-24T19:10:00.515Z,6.58
2024-04-24T19:12:27.324Z,6.62
2024-04-24T19:14:54.007Z,6.64
2024-04-24T19:17:20.865Z,6.56
2024-04-24T19:19:47.798Z,6.51
2024-04-24T19:22:14.709Z,6.49
2024-04-24T19:24:41.438Z,6.49
2024-04-24T19:27:08.057Z,6.49
2024-04-24T19:29:34.899Z,6.48
2024-04-24T19:32:02.440Z,6.46
2024-04-24T19:34:29.155Z,6.41
2024-04-24T19:36:55.926Z,6.43
2024-04-24T19:39:22.527Z,6.44
2024-04-24T19:41:49.148Z,6.40
2024-04-24T19:44:15.816Z,6.38
2024-04-24T19:46:43.083Z,6.34
2024-04-24T19:49:10.334Z,6.36
2024-04-24T19:51:38.854Z,6.32
2024-04-24T19:54:05.797Z,6.33
2024-04-24T19:56:34.112Z,6.33
2024-04-24T19:59:01.858Z,6.33
2024-04-24T20:01:29.942Z,6.32
2024-04-24T20:03:57.008Z,6.34
2024-04-24T20:06:23.712Z,6.34
2024-04-24T20:08:50.356Z,6.36
2024-04-24T20:11:17.187Z,6.38
2024-04-24T20:13:43.962Z,6.36
2024-04-24T20:16:10.647Z,6.35
2024-04-24T20:18:38.823Z,6.38
2024-04-24T20:21:14.843Z,6.36
2024-04-24T20:23:41.573Z,6.35
2024-04-24T20:26:24.702Z,6.33
2024-04-24T20:28:52.355Z,6.31
2024-04-24T20:31:21.888Z,6.30
2024-04-24T20:33:52.703Z,6.27
2024-04-24T20:36:23.390Z,6.28
2024-04-24T20:38:50.697Z,6.27
2024-04-24T20:41:21.263Z,6.26
2024-04-24T20:43:49.091Z,6.28
2024-04-24T20:46:16.711Z,6.28
2024-04-24T20:48:43.942Z,6.27
2024-04-24T20:51:11.575Z,6.26
2024-04-24T20:53:38.392Z,6.25
2024-04-24T20:56:09.115Z,6.24
2024-04-24T20:58:36.346Z,6.24
2024-04-24T21:01:06.905Z,6.20
2024-04-24T21:03:34.063Z,6.17
2024-04-24T21:06:08.341Z,6.19
2024-04-24T21:08:36.099Z,6.20
2024-04-24T21:11:04.121Z,6.18
2024-04-24T21:13:32.344Z,6.16
2024-04-24T21:15:59.062Z,6.16
2024-04-24T21:18:25.989Z,6.13
2024-04-24T21:20:52.738Z,6.11
2024-04-24T21:23:19.555Z,6.12
2024-04-24T21:25:46.300Z,6.10
2024-04-24T21:28:14.555Z,6.13
2024-04-24T21:30:41.245Z,6.08
2024-04-24T21:33:08.015Z,6.08
2024-04-24T21:35:35.911Z,6.07
2024-04-24T21:38:02.571Z,6.03
2024-04-24T21:40:29.289Z,6.04
2024-04-24T21:42:57.112Z,6.01
2024-04-24T21:45:27.190Z,5.93
2024-04-24T21:47:56.774Z,5.94
2024-04-24T21:50:23.530Z,5.91
2024-04-24T21:52:50.191Z,5.86
2024-04-24T21:55:16.938Z,5.84
2024-04-24T21:57:43.557Z,5.79
2024-04-24T22:00:10.622Z,5.77
2024-04-24T22:02:37.466Z,5.74
2024-04-24T22:05:05.371Z,5.73
2024-04-24T22:07:32.021Z,5.48
2024-04-24T22:09:58.658Z,5.66
2024-04-24T22:12:25.381Z,5.66
2024-04-24T22:14:52.082Z,5.69
2024-04-24T22:17:24.948Z,5.67
2024-04-24T22:19:54.371Z,5.62
2024-04-24T22:22:22.969Z,5.66
2024-04-24T22:24:49.819Z,5.63
2024-04-24T22:27:16.645Z,5.57
2024-04-24T22:29:43.333Z,5.60
2024-04-24T22:32:10.047Z,5.59
2024-04-24T22:34:36.782Z,5.58
2024-04-24T22:37:03.485Z,5.57
2024-04-24T22:39:30.492Z,5.57
2024-04-24T22:41:57.161Z,5.58
2024-04-24T22:44:23.972Z,5.56
2024-04-24T22:46:50.803Z,5.50
2024-04-24T22:49:17.440Z,5.49
2024-04-24T22:51:44.275Z,5.50
2024-04-24T22:54:10.924Z,5.50
2024-04-24T22:56:38.074Z,5.32
2024-04-24T22:59:04.877Z,5.49
2024-04-24T23:01:31.539Z,5.49
2024-04-24T23:03:58.316Z,5.46
2024-04-24T23:06:25.003Z,5.40
2024-04-24T23:08:51.693Z,5.42
2024-04-24T23:11:18.387Z,5.42
2024-04-24T23:13:45.095Z,5.43
2024-04-24T23:16:12.334Z,5.44
2024-04-24T23:18:39.351Z,5.21
2024-04-24T23:21:06.092Z,5.44
2024-04-24T23:23:32.770Z,5.43
2024-04-24T23:25:59.500Z,5.42
2024-04-24T23:28:26.266Z,5.41
2024-04-24T23:30:52.981Z,5.41
2024-04-24T23:33:19.672Z,5.42
2024-04-24T23:35:46.351Z,5.40
2024-04-24T23:38:13.410Z,5.39
2024-04-24T23:40:40.106Z,5.40
2024-04-24T23:43:06.695Z,5.43
2024-04-24T23:45:33.338Z,5.43
2024-04-24T23:48:00.588Z,5.43
2024-04-24T23:50:27.346Z,5.35
2024-04-24T23:52:53.988Z,5.41
2024-04-24T23:55:20.833Z,5.43
2024-04-24T23:57:47.432Z,5.46
